Nearby METAR Reports

 

KIND - Indianapolis, Indiana, USA
Distance from station: SW 6mi, 9km
Updated: Jul 05 2022 10:54pm
Few Clouds
Few Clouds
 Wind from WSW
Wind: WSW 9 mph , 15 km/h
Temperature: 88°F , 31°C
Heat Index: 96°F , 36°C
Dew Point: 73°F , 23°C
Humidity: 62%
Barometer: 29.90 inHg , 1012.5 hPa
Clouds: Few Clouds
Visibility: 10 miles , 16 km
Cloud details: Few Clouds 25000 ft
2022/07/06 02:54 KIND 060254Z 25008KT 10SM FEW250 31/23 A2990 RMK AO2 SLP116 T03060228 53012
KEYE - Indianapolis, Indiana, USA
Distance from station: NW 5mi, 8km
Updated: Jul 05 2022 10:53pm
Clear
Clear
 Wind from WSW
Wind: WSW 5 mph , 7 km/h
Temperature: 90°F , 32°C
Heat Index: 99°F , 37°C
Dew Point: 73°F , 23°C
Humidity: 59%
Barometer: 29.90 inHg , 1012.5 hPa
Clouds: Clear
Visibility: 10 miles , 16 km
2022/07/06 02:53 KEYE 060253Z AUTO 24004KT 10SM CLR 32/23 A2990 RMK AO2 SLP114 T03220233 53013 TSNO
 
KTYQ - Indianapolis Exc, Indiana, USA
Distance from station: N 17mi, 28km
Updated: Jul 05 2022 11:15pm
Clear
Clear
 Wind from SW
Wind: SW 6 mph , 9 km/h
Temperature: 82°F , 28°C
Heat Index: 87°F , 31°C
Dew Point: 73°F , 23°C
Humidity: 74%
Barometer: 29.92 inHg , 1013.2 hPa
Clouds: Clear
Visibility: 10 miles , 16 km
2022/07/06 03:15 KTYQ 060315Z AUTO 23005KT 10SM CLR 28/23 A2992 RMK AO2 T02830227
KGEZ - Shelbyville, Indiana, USA
Distance from station: ESE 27mi, 43km
Updated: Jul 05 2022 10:53pm
Clear
Clear
 Wind from SSW
Wind: SSW 6 mph , 9 km/h
Temperature: 88°F , 31°C
Heat Index: 100°F , 38°C
Dew Point: 77°F , 25°C
Humidity: 70%
Barometer: 29.90 inHg , 1012.5 hPa
Clouds: Clear
Visibility: 10 miles , 16 km
2022/07/06 02:53 KGEZ 060253Z AUTO 21005KT 10SM CLR 31/25 A2990 RMK AO2 SLP116 T03060250 53009 TSNO
 
KAID - Anderson Municip, Indiana, USA
Distance from station: NE 40mi, 64km
Updated: Jul 05 2022 11:35pm
Clear
Clear
 Wind from calm
Wind: Calm
Temperature: 82°F , 28°C
Heat Index: 86°F , 30°C
Dew Point: 70°F , 21°C
Humidity: 66%
Barometer: 29.91 inHg , 1012.9 hPa
Clouds: Clear
Visibility: 10 miles , 16 km
2022/07/06 03:35 KAID 060335Z AUTO 00000KT 10SM CLR 28/21 A2991 RMK AO2 T02750205
KBAK - Columbus/Balkala, Indiana, USA
Distance from station: SSE 40mi, 64km
Updated: Jul 05 2022 9:45pm
NOT Current
Clear
Clear
 Wind from calm
Wind: Calm
Temperature: 90°F , 32°C
Barometer: 29.88 inHg , 1011.9 hPa
Clouds: Clear
Visibility: 10 miles , 16 km
2022/07/06 01:45 KBAK 060145Z 00000KT 10SM CLR 32/ A2988 RMK LAST
 
KBMG - Bloomington, Indiana, USA
Distance from station: SSW 48mi, 78km
Updated: Jul 05 2022 10:53pm
Clear
Clear
 Wind from WSW
Wind: WSW 6 mph , 9 km/h
Temperature: 84°F , 29°C
Heat Index: 92°F , 33°C
Dew Point: 75°F , 24°C
Humidity: 74%
Barometer: 29.93 inHg , 1013.5 hPa
Clouds: Clear
Visibility: 10 miles , 16 km
2022/07/06 02:53 KBMG 060253Z AUTO 24005KT 10SM CLR 29/24 A2993 RMK AO2 SLP124 T02940239 53010
KOKK - Kokomo, Indiana, USA
Distance from station: N 53mi, 85km
Updated: Jul 05 2022 10:56pm
Clear
Clear
 Wind from WSW
Wind: WSW 7 mph , 11 km/h
Temperature: 86°F , 30°C
Heat Index: 97°F , 36°C
Dew Point: 77°F , 25°C
Humidity: 75%
Barometer: 29.89 inHg , 1012.2 hPa
Clouds: Clear
Visibility: 10 miles , 16 km
2022/07/06 02:56 KOKK 060256Z AUTO 24006KT 10SM CLR 30/25 A2989 RMK AO2 SLP114 T03000250 53011